Time;durP1;ratioP1;P1;durP2;ratioP2;P2;SDS_P1;SDS_P2;PMS_P1;PMS_P2;Temp;Humidity;BMP_temperature;BMP_pressure;BME280_temperature;BME280_humidity;BME280_pressure;Samples;Min_cycle;Max_cycle;Signal;HPM_P1;HPM_P2
2023/09/16 00:00:59;;;;;;;0.10;0.10;;;16.10;79.30;;;;;;5009407;28;20790;-69
2023/09/16 00:03:24;;;;;;;0.00;0.00;;;16.10;79.30;;;;;;5009978;28;20042;-69
2023/09/16 00:05:50;;;;;;;0.00;0.00;;;16.00;79.20;;;;;;5010078;28;20042;-69
2023/09/16 00:08:15;;;;;;;0.00;0.00;;;16.00;79.20;;;;;;4988536;28;20165;-69
2023/09/16 00:10:41;;;;;;;0.00;0.00;;;16.00;79.40;;;;;;4999563;28;20120;-69
2023/09/16 00:13:06;;;;;;;0.00;0.00;;;16.00;79.60;;;;;;5008805;28;20496;-69
2023/09/16 00:15:32;;;;;;;0.00;0.00;;;16.00;79.60;;;;;;4997337;28;20042;-69
2023/09/16 00:17:58;;;;;;;0.00;0.00;;;16.00;79.60;;;;;;5009118;28;20108;-69
2023/09/16 00:20:25;;;;;;;0.00;0.00;;;16.00;79.60;;;;;;4995321;28;20045;-69
2023/09/16 00:22:51;;;;;;;0.00;0.00;;;16.00;79.90;;;;;;5006790;28;20081;-69
2023/09/16 00:25:17;;;;;;;0.00;0.00;;;16.10;80.20;;;;;;5009254;28;20384;-69
2023/09/16 00:27:42;;;;;;;0.00;0.00;;;16.00;80.40;;;;;;4993304;28;20499;-69
2023/09/16 00:30:08;;;;;;;0.00;0.00;;;16.10;80.20;;;;;;5004862;28;20065;-69
2023/09/16 00:32:35;;;;;;;0.00;0.00;;;16.00;80.40;;;;;;5004149;28;20445;-68
2023/09/16 00:35:04;;;;;;;0.00;0.00;;;16.10;80.40;;;;;;5009695;28;20525;-69
2023/09/16 00:37:30;;;;;;;0.00;0.00;;;16.10;80.30;;;;;;5009206;28;20069;-69
2023/09/16 00:39:55;;;;;;;0.00;0.00;;;16.00;80.20;;;;;;5006256;28;20076;-69
2023/09/16 00:42:21;;;;;;;0.00;0.00;;;16.00;80.20;;;;;;5009209;28;20049;-69
2023/09/16 00:44:47;;;;;;;0.00;0.00;;;16.00;80.30;;;;;;5008161;28;20049;-69
2023/09/16 00:47:13;;;;;;;0.00;0.00;;;16.00;80.30;;;;;;5008904;28;20049;-69
2023/09/16 00:49:39;;;;;;;0.00;0.00;;;16.00;80.10;;;;;;5008876;28;20783;-69
2023/09/16 00:52:05;;;;;;;0.00;0.00;;;16.00;80.20;;;;;;5009188;28;20052;-69
2023/09/16 00:54:31;;;;;;;0.00;0.00;;;16.00;80.20;;;;;;5009275;28;20217;-70
2023/09/16 00:56:58;;;;;;;0.00;0.00;;;16.00;80.20;;;;;;5007580;28;20058;-69
2023/09/16 00:59:25;;;;;;;0.00;0.00;;;16.00;80.00;;;;;;5007150;28;20132;-69
2023/09/16 01:01:52;;;;;;;0.00;0.00;;;16.00;80.00;;;;;;5008709;28;20075;-69
2023/09/16 01:04:24;;;;;;;0.00;0.00;;;16.00;80.20;;;;;;5008054;28;20517;-69
2023/09/16 01:06:51;;;;;;;0.00;0.00;;;15.90;80.20;;;;;;5003730;28;20849;-69
2023/09/16 01:09:17;;;;;;;0.00;0.00;;;16.00;80.20;;;;;;5000639;28;20058;-69
2023/09/16 01:11:46;;;;;;;0.00;0.00;;;15.90;80.10;;;;;;5010860;28;20548;-69
2023/09/16 01:14:12;;;;;;;0.00;0.00;;;15.90;80.20;;;;;;5006143;28;20187;-69
2023/09/16 01:16:57;;;;;;;0.00;0.00;;;15.90;80.10;;;;;;5012927;28;20137;-69
2023/09/16 01:19:47;;;;;;;0.00;0.00;;;15.80;80.10;;;;;;5012308;28;20048;-69
2023/09/16 01:22:14;;;;;;;0.00;0.00;;;15.80;80.00;;;;;;5013088;28;20137;-69
2023/09/16 01:24:40;;;;;;;0.00;0.00;;;15.80;80.30;;;;;;5007288;28;20147;-69
2023/09/16 01:27:07;;;;;;;0.00;0.00;;;15.70;80.60;;;;;;5011566;28;20054;-69
2023/09/16 01:29:34;;;;;;;1.33;0.52;;;15.70;80.70;;;;;;4999600;28;20839;-69
2023/09/16 01:32:05;;;;;;;0.00;0.00;;;15.80;80.60;;;;;;5008198;28;20854;-69
2023/09/16 01:34:37;;;;;;;;;;;15.80;80.90;;;;;;5012965;28;20387;-69
2023/09/16 01:37:04;;;;;;;0.00;0.00;;;15.70;81.00;;;;;;5003700;28;19922;-70
2023/09/16 01:39:31;;;;;;;0.00;0.00;;;15.80;81.00;;;;;;4998553;28;20069;-69
2023/09/16 01:42:00;;;;;;;0.00;0.00;;;15.80;81.00;;;;;;5004828;28;20088;-69
2023/09/16 01:44:25;;;;;;;0.00;0.00;;;15.70;80.90;;;;;;5006158;28;20046;-69
2023/09/16 01:46:55;;;;;;;0.00;0.00;;;15.70;80.80;;;;;;5012022;28;20092;-69
2023/09/16 01:49:20;;;;;;;0.00;0.00;;;15.70;80.60;;;;;;5008147;28;20050;-69
2023/09/16 01:51:46;;;;;;;0.00;0.00;;;15.70;80.90;;;;;;4997872;28;20115;-69
2023/09/16 01:54:12;;;;;;;0.00;0.00;;;15.60;80.80;;;;;;5005242;28;20053;-69
2023/09/16 01:56:37;;;;;;;0.00;0.00;;;15.60;80.80;;;;;;5011366;28;20030;-69
2023/09/16 01:59:03;;;;;;;0.00;0.00;;;15.60;80.90;;;;;;5007424;28;20096;-69
2023/09/16 02:01:29;;;;;;;0.00;0.00;;;15.60;80.80;;;;;;5011476;28;20477;-69
2023/09/16 02:03:55;;;;;;;0.00;0.00;;;15.60;80.70;;;;;;5011054;28;20130;-69
2023/09/16 02:06:21;;;;;;;0.00;0.00;;;15.50;80.70;;;;;;5000596;28;20403;-69
2023/09/16 02:08:46;;;;;;;0.00;0.00;;;15.50;80.90;;;;;;5004397;28;20038;-69
2023/09/16 02:11:12;;;;;;;0.00;0.00;;;15.50;81.10;;;;;;5005374;28;20049;-69
2023/09/16 02:13:38;;;;;;;0.00;0.00;;;15.50;81.10;;;;;;5011747;28;20077;-69
2023/09/16 02:16:04;;;;;;;0.00;0.00;;;15.50;81.00;;;;;;5012056;28;20057;-69
2023/09/16 02:18:29;;;;;;;0.00;0.00;;;15.40;80.90;;;;;;5011919;28;20494;-69
2023/09/16 02:20:55;;;;;;;0.00;0.00;;;15.50;81.20;;;;;;5011463;28;20057;-69
2023/09/16 02:23:22;;;;;;;0.00;0.00;;;15.40;81.40;;;;;;5004245;28;20042;-69
2023/09/16 02:25:47;;;;;;;0.00;0.00;;;15.40;81.30;;;;;;5008408;28;20096;-69
2023/09/16 02:28:13;;;;;;;0.00;0.00;;;15.40;81.40;;;;;;5012394;28;20054;-69
2023/09/16 02:30:39;;;;;;;0.00;0.00;;;15.30;81.30;;;;;;5011332;28;20084;-69
2023/09/16 02:33:05;;;;;;;0.00;0.00;;;15.30;81.50;;;;;;5011190;28;20606;-70
2023/09/16 02:35:30;;;;;;;0.00;0.00;;;15.30;81.50;;;;;;5009631;28;20513;-69
2023/09/16 02:37:58;;;;;;;0.00;0.00;;;15.30;81.50;;;;;;4993076;28;20042;-69
2023/09/16 02:40:24;;;;;;;0.00;0.00;;;15.30;81.40;;;;;;5009686;28;20048;-69
2023/09/16 02:42:49;;;;;;;0.00;0.00;;;15.30;81.40;;;;;;5008441;28;20487;-69
2023/09/16 02:45:15;;;;;;;0.00;0.00;;;15.30;81.50;;;;;;5003000;28;20050;-69
2023/09/16 02:47:41;;;;;;;0.00;0.00;;;15.30;81.40;;;;;;5010535;28;20161;-70
2023/09/16 02:50:07;;;;;;;0.00;0.00;;;15.20;81.40;;;;;;5011250;28;20100;-69
2023/09/16 02:52:32;;;;;;;0.00;0.00;;;15.20;81.50;;;;;;5010358;28;20053;-69
2023/09/16 02:54:58;;;;;;;0.00;0.00;;;15.20;81.80;;;;;;5011149;28;20046;-69
2023/09/16 02:57:23;;;;;;;0.00;0.00;;;15.10;81.80;;;;;;5009683;28;20038;-69
2023/09/16 02:59:49;;;;;;;0.00;0.00;;;15.10;81.70;;;;;;5009398;28;20056;-69
2023/09/16 03:02:15;;;;;;;0.00;0.00;;;15.20;81.80;;;;;;5011165;28;20053;-69
2023/09/16 03:04:41;;;;;;;0.00;0.00;;;15.10;81.90;;;;;;5011388;28;20061;-69
2023/09/16 03:07:07;;;;;;;0.00;0.00;;;15.20;81.90;;;;;;5010608;28;20080;-69
2023/09/16 03:09:32;;;;;;;0.00;0.00;;;15.10;82.00;;;;;;5010240;28;20046;-69
2023/09/16 03:11:58;;;;;;;0.00;0.00;;;15.10;82.10;;;;;;5010843;28;20132;-69
2023/09/16 03:14:24;;;;;;;0.00;0.00;;;15.10;82.10;;;;;;5010545;28;20050;-69
2023/09/16 03:16:49;;;;;;;0.00;0.00;;;15.20;82.10;;;;;;5011023;28;20502;-69
2023/09/16 03:19:16;;;;;;;0.00;0.00;;;15.10;82.00;;;;;;5003900;28;20046;-69
2023/09/16 03:21:42;;;;;;;0.00;0.00;;;15.10;82.10;;;;;;5001474;28;20046;-69
2023/09/16 03:24:07;;;;;;;0.00;0.00;;;15.10;82.10;;;;;;5009942;28;20392;-69
2023/09/16 03:26:33;;;;;;;0.00;0.00;;;15.10;82.30;;;;;;5007788;28;20053;-69
2023/09/16 03:28:59;;;;;;;0.00;0.00;;;15.10;82.30;;;;;;4997899;28;20052;-69
2023/09/16 03:31:24;;;;;;;0.10;0.10;;;15.10;82.10;;;;;;5006262;28;20057;-69
2023/09/16 03:33:50;;;;;;;0.00;0.00;;;15.00;82.10;;;;;;5005112;28;20116;-69
2023/09/16 03:36:15;;;;;;;0.00;0.00;;;15.00;82.20;;;;;;5009882;28;20042;-69
2023/09/16 03:38:49;;;;;;;0.00;0.00;;;15.00;82.20;;;;;;5007616;28;20045;-69
2023/09/16 03:41:16;;;;;;;0.00;0.00;;;15.00;82.10;;;;;;5009930;28;20085;-69
2023/09/16 03:43:42;;;;;;;0.00;0.00;;;15.00;82.00;;;;;;5003184;28;20092;-69
2023/09/16 03:46:08;;;;;;;0.00;0.00;;;14.90;82.10;;;;;;5009926;28;20042;-69
2023/09/16 03:48:33;;;;;;;0.05;0.05;;;14.90;82.10;;;;;;5010403;28;20069;-69
2023/09/16 03:50:59;;;;;;;0.00;0.00;;;14.80;82.30;;;;;;5009521;28;20045;-69
2023/09/16 03:53:25;;;;;;;0.00;0.00;;;14.90;82.20;;;;;;5010319;28;20158;-69
2023/09/16 03:56:05;;;;;;;0.00;0.00;;;14.80;82.20;;;;;;5124319;27;20404;-67
2023/09/16 03:58:32;;;;;;;0.00;0.00;;;14.80;82.20;;;;;;5117399;28;20132;-68
2023/09/16 04:00:57;;;;;;;0.00;0.00;;;14.80;82.20;;;;;;5108308;28;20056;-67
2023/09/16 04:03:23;;;;;;;0.00;0.00;;;14.70;82.10;;;;;;5109239;28;20096;-67
2023/09/16 04:05:54;;;;;;;0.00;0.00;;;14.70;82.30;;;;;;5108467;28;20058;-67
2023/09/16 04:08:20;;;;;;;0.00;0.00;;;14.70;82.30;;;;;;5108354;28;20044;-67
2023/09/16 04:10:45;;;;;;;0.00;0.00;;;14.70;82.40;;;;;;5109040;28;20046;-66
2023/09/16 04:13:13;;;;;;;0.00;0.00;;;14.70;82.50;;;;;;5122474;27;20552;-66
2023/09/16 04:15:38;;;;;;;0.00;0.00;;;14.70;82.60;;;;;;5102759;28;20055;-66
2023/09/16 04:18:04;;;;;;;0.00;0.00;;;14.60;82.70;;;;;;5108557;28;20043;-66
2023/09/16 04:20:29;;;;;;;0.00;0.00;;;14.70;82.70;;;;;;5107560;28;20452;-67
2023/09/16 04:22:55;;;;;;;0.00;0.00;;;14.60;82.80;;;;;;5108464;28;20044;-66
2023/09/16 04:25:22;;;;;;;0.00;0.00;;;14.60;82.90;;;;;;5106511;28;20101;-66
2023/09/16 04:27:47;;;;;;;0.10;0.10;;;14.60;83.00;;;;;;5107298;28;20054;-66
2023/09/16 04:30:13;;;;;;;0.00;0.00;;;14.60;83.00;;;;;;5106410;28;20047;-67
2023/09/16 04:32:40;;;;;;;0.10;0.10;;;14.60;83.00;;;;;;5104650;28;20039;-67
2023/09/16 04:35:06;;;;;;;0.00;0.00;;;14.60;83.00;;;;;;5103661;28;20047;-67
2023/09/16 04:37:32;;;;;;;0.00;0.00;;;14.60;83.00;;;;;;5106333;28;20044;-66
2023/09/16 04:39:58;;;;;;;0.00;0.00;;;14.60;83.00;;;;;;5098577;28;20051;-66
2023/09/16 04:42:30;;;;;;;0.00;0.00;;;14.60;83.00;;;;;;5085939;28;20040;-67
2023/09/16 04:44:56;;;;;;;0.00;0.00;;;14.60;83.00;;;;;;5085670;28;20040;-68
2023/09/16 04:47:22;;;;;;;0.00;0.00;;;14.60;83.00;;;;;;5086806;28;20051;-66
2023/09/16 04:49:48;;;;;;;0.00;0.00;;;14.60;83.00;;;;;;5084249;28;20083;-66
2023/09/16 04:52:14;;;;;;;0.00;0.00;;;14.60;83.00;;;;;;5086422;28;20559;-66
2023/09/16 04:54:40;;;;;;;0.00;0.00;;;14.50;83.10;;;;;;5101128;28;20060;-67
2023/09/16 04:57:06;;;;;;;0.00;0.00;;;14.50;83.10;;;;;;5085262;28;20518;-68
2023/09/16 04:59:34;;;;;;;0.20;0.10;;;14.50;83.20;;;;;;5083288;28;20048;-68
2023/09/16 05:02:00;;;;;;;0.00;0.00;;;14.60;83.30;;;;;;5100542;28;20047;-69
2023/09/16 05:04:26;;;;;;;0.00;0.00;;;14.50;83.20;;;;;;5087922;28;20048;-67
2023/09/16 05:06:52;;;;;;;0.00;0.00;;;14.50;83.30;;;;;;5077754;28;20075;-66
2023/09/16 05:09:20;;;;;;;0.00;0.00;;;14.50;83.30;;;;;;5075275;28;20375;-66
2023/09/16 05:11:46;;;;;;;0.00;0.00;;;14.50;83.30;;;;;;5073119;28;20113;-66
2023/09/16 05:14:12;;;;;;;0.00;0.00;;;14.50;83.30;;;;;;5073697;28;20032;-66
2023/09/16 05:16:38;;;;;;;0.00;0.00;;;14.50;83.30;;;;;;5072241;28;20139;-66
2023/09/16 05:19:03;;;;;;;0.00;0.00;;;14.50;83.30;;;;;;5067567;28;20040;-66
2023/09/16 05:21:30;;;;;;;0.00;0.00;;;14.50;83.30;;;;;;5061802;28;20040;-67
2023/09/16 05:23:56;;;;;;;0.00;0.00;;;14.40;83.30;;;;;;5064124;28;20151;-67
2023/09/16 05:26:21;;;;;;;0.00;0.00;;;14.50;83.40;;;;;;5068420;28;20157;-67
2023/09/16 05:28:47;;;;;;;0.00;0.00;;;14.40;83.40;;;;;;5061565;28;20106;-68
2023/09/16 05:31:13;;;;;;;0.10;0.10;;;14.50;83.40;;;;;;5060962;28;20040;-67
2023/09/16 05:33:38;;;;;;;0.00;0.00;;;14.50;83.40;;;;;;5066318;28;20144;-68
2023/09/16 05:36:04;;;;;;;0.00;0.00;;;14.50;83.50;;;;;;5057662;28;20040;-72
2023/09/16 05:38:30;;;;;;;0.00;0.00;;;14.50;83.50;;;;;;5066234;28;20098;-68
2023/09/16 05:40:55;;;;;;;0.00;0.00;;;14.50;83.40;;;;;;5059302;28;20123;-71
2023/09/16 05:43:22;;;;;;;0.05;0.05;;;14.50;83.40;;;;;;5060066;28;20139;-69
2023/09/16 05:45:51;;;;;;;0.05;0.05;;;14.50;83.40;;;;;;5059415;28;20045;-69
2023/09/16 05:48:18;;;;;;;0.00;0.00;;;14.60;83.40;;;;;;5062919;28;20045;-73
2023/09/16 05:50:43;;;;;;;0.00;0.00;;;14.60;83.40;;;;;;5063780;28;20490;-72
2023/09/16 05:53:09;;;;;;;0.00;0.00;;;14.60;83.40;;;;;;5064481;28;20091;-72
2023/09/16 05:55:41;;;;;;;0.00;0.00;;;14.60;83.40;;;;;;5053318;28;20080;-70
2023/09/16 05:58:11;;;;;;;;;;;14.60;83.40;;;;;;5058069;28;20049;-68
2023/09/16 06:00:36;;;;;;;0.00;0.00;;;14.60;83.40;;;;;;5061132;28;20381;-69
2023/09/16 06:03:02;;;;;;;0.00;0.00;;;14.60;83.50;;;;;;5060443;28;20057;-70
2023/09/16 06:05:29;;;;;;;0.00;0.00;;;14.70;83.60;;;;;;5058079;28;20118;-70
2023/09/16 06:07:55;;;;;;;0.00;0.00;;;14.70;83.70;;;;;;5055878;28;20057;-70
2023/09/16 06:10:20;;;;;;;0.00;0.00;;;14.80;83.70;;;;;;5055349;28;20089;-70
2023/09/16 06:12:46;;;;;;;0.00;0.00;;;14.70;83.70;;;;;;5060013;28;20109;-71
2023/09/16 06:15:12;;;;;;;0.00;0.00;;;14.70;83.90;;;;;;5054645;28;20055;-72
2023/09/16 06:17:37;;;;;;;0.00;0.00;;;14.80;84.10;;;;;;5054533;28;20049;-71
2023/09/16 06:20:03;;;;;;;0.00;0.00;;;14.80;84.30;;;;;;5054490;28;20073;-70
2023/09/16 06:22:29;;;;;;;0.00;0.00;;;14.90;84.40;;;;;;5057192;28;20609;-70
2023/09/16 06:24:55;;;;;;;0.00;0.00;;;15.00;84.30;;;;;;5052957;28;20114;-70
2023/09/16 06:27:20;;;;;;;0.00;0.00;;;15.00;84.30;;;;;;5059942;28;20055;-70
2023/09/16 06:29:46;;;;;;;0.00;0.00;;;15.10;84.30;;;;;;5052315;28;20371;-70
2023/09/16 06:32:13;;;;;;;0.00;0.00;;;15.10;84.30;;;;;;5057336;28;20048;-70
2023/09/16 06:34:38;;;;;;;0.70;0.70;;;15.10;84.40;;;;;;5056744;28;20063;-70
2023/09/16 06:37:07;;;;;;;0.00;0.00;;;15.20;84.50;;;;;;5055731;28;20041;-70
2023/09/16 06:39:33;;;;;;;0.00;0.00;;;15.20;84.50;;;;;;5064442;28;20048;-70
2023/09/16 06:41:59;;;;;;;0.00;0.00;;;15.20;84.50;;;;;;5062078;28;20102;-70
2023/09/16 06:44:24;;;;;;;0.00;0.00;;;15.30;84.50;;;;;;5055132;28;20080;-69
2023/09/16 06:46:50;;;;;;;0.00;0.00;;;15.40;84.50;;;;;;5058910;28;20055;-70
2023/09/16 06:49:17;;;;;;;0.00;0.00;;;15.30;84.60;;;;;;5057373;28;20139;-70
2023/09/16 06:51:43;;;;;;;0.00;0.00;;;15.40;84.60;;;;;;5064760;28;20056;-70
2023/09/16 06:54:09;;;;;;;0.00;0.00;;;15.50;83.80;;;;;;5064496;28;20413;-70
2023/09/16 06:56:34;;;;;;;0.00;0.00;;;16.00;83.40;;;;;;5061079;28;20045;-70
2023/09/16 06:59:01;;;;;;;0.00;0.00;;;16.50;82.70;;;;;;5061992;28;20072;-70
2023/09/16 07:01:27;;;;;;;0.03;0.03;;;16.80;82.00;;;;;;5067156;28;20054;-70
2023/09/16 07:03:52;;;;;;;0.00;0.00;;;17.20;81.20;;;;;;5071337;28;20305;-70
2023/09/16 07:06:18;;;;;;;0.00;0.00;;;17.50;80.60;;;;;;5069759;28;20036;-70
2023/09/16 07:08:44;;;;;;;0.00;0.00;;;17.60;80.10;;;;;;5070668;28;20089;-70
2023/09/16 07:11:12;;;;;;;0.00;0.00;;;17.80;79.70;;;;;;5070251;28;20037;-70
2023/09/16 07:13:38;;;;;;;0.00;0.00;;;17.90;79.40;;;;;;5066394;28;20802;-70
2023/09/16 07:16:04;;;;;;;0.00;0.00;;;18.00;79.10;;;;;;5063483;28;20056;-70
2023/09/16 07:18:30;;;;;;;0.20;0.20;;;18.10;79.00;;;;;;5046705;28;20053;-70
2023/09/16 07:20:56;;;;;;;0.00;0.00;;;18.10;78.80;;;;;;5057923;28;20051;-69
2023/09/16 07:23:22;;;;;;;0.00;0.00;;;18.20;78.60;;;;;;5060331;28;20048;-69
2023/09/16 07:25:59;;;;;;;0.00;0.00;;;18.30;78.50;;;;;;5057315;28;20044;-69
2023/09/16 07:28:26;;;;;;;0.00;0.00;;;18.40;78.40;;;;;;5071261;28;20520;-70
2023/09/16 07:30:52;;;;;;;0.00;0.00;;;18.40;78.30;;;;;;5065785;28;20052;-70
2023/09/16 07:33:17;;;;;;;0.00;0.00;;;18.50;78.20;;;;;;5062000;28;20055;-70
2023/09/16 07:35:43;;;;;;;0.00;0.00;;;18.50;78.10;;;;;;5065438;28;20057;-69
2023/09/16 07:38:09;;;;;;;5.15;0.50;;;18.60;78.10;;;;;;5066780;28;20071;-70
2023/09/16 07:40:37;;;;;;;0.00;0.00;;;18.60;78.00;;;;;;5052416;28;20490;-70
2023/09/16 07:43:08;;;;;;;0.05;0.05;;;18.60;77.90;;;;;;5056611;28;20061;-73
2023/09/16 07:45:34;;;;;;;0.47;0.40;;;18.70;77.90;;;;;;5062183;28;20044;-71
2023/09/16 07:48:00;;;;;;;0.00;0.00;;;18.80;77.90;;;;;;5062016;28;20141;-70
2023/09/16 07:50:26;;;;;;;0.00;0.00;;;18.80;77.80;;;;;;5065167;28;20505;-71
2023/09/16 07:52:51;;;;;;;0.05;0.05;;;18.80;77.80;;;;;;5063638;28;20060;-70
2023/09/16 07:55:17;;;;;;;0.00;0.00;;;18.90;77.80;;;;;;5057880;28;20160;-69
2023/09/16 07:57:42;;;;;;;0.10;0.10;;;18.90;77.60;;;;;;5055804;28;20056;-69
2023/09/16 08:00:09;;;;;;;0.00;0.00;;;18.70;77.70;;;;;;5056039;28;20494;-69
2023/09/16 08:02:34;;;;;;;0.00;0.00;;;18.50;78.20;;;;;;5058957;28;20044;-69
2023/09/16 08:05:00;;;;;;;0.15;0.15;;;18.40;78.80;;;;;;5058030;28;20612;-69
2023/09/16 08:07:26;;;;;;;0.00;0.00;;;18.20;79.20;;;;;;5054337;28;20033;-70
2023/09/16 08:09:51;;;;;;;0.00;0.00;;;18.10;79.80;;;;;;5056711;28;20500;-69
2023/09/16 08:12:19;;;;;;;0.00;0.00;;;18.10;80.20;;;;;;5059505;28;20051;-69
2023/09/16 08:14:45;;;;;;;0.00;0.00;;;18.00;80.70;;;;;;5064847;28;20082;-70
2023/09/16 08:17:11;;;;;;;0.00;0.00;;;18.00;81.10;;;;;;5066885;28;20048;-70
2023/09/16 08:19:36;;;;;;;0.00;0.00;;;17.90;81.10;;;;;;5054926;28;20473;-69
2023/09/16 08:22:02;;;;;;;0.00;0.00;;;17.90;81.10;;;;;;5056760;28;20048;-70
2023/09/16 08:24:27;;;;;;;0.00;0.00;;;17.90;81.30;;;;;;5059915;28;20126;-70
2023/09/16 08:26:53;;;;;;;0.00;0.00;;;18.00;81.60;;;;;;5061054;28;20104;-70
2023/09/16 08:29:19;;;;;;;0.00;0.00;;;18.00;81.80;;;;;;5062470;28;20052;-69
2023/09/16 08:31:44;;;;;;;0.00;0.00;;;18.00;81.90;;;;;;5066469;28;20137;-70
2023/09/16 08:34:10;;;;;;;0.00;0.00;;;18.10;82.50;;;;;;5055641;28;20471;-70
2023/09/16 08:36:35;;;;;;;0.00;0.00;;;18.10;82.30;;;;;;5056786;28;20090;-70
2023/09/16 08:39:01;;;;;;;0.00;0.00;;;18.10;82.30;;;;;;5059079;28;20548;-70
2023/09/16 08:41:36;;;;;;;0.00;0.00;;;18.10;82.70;;;;;;5063412;28;20523;-69
2023/09/16 08:44:05;;;;;;;0.00;0.00;;;18.10;82.90;;;;;;5070253;28;20061;-70
2023/09/16 08:46:34;;;;;;;0.00;0.00;;;18.10;82.50;;;;;;5060832;28;20052;-70
2023/09/16 08:49:04;;;;;;;0.00;0.00;;;18.20;82.60;;;;;;5060943;28;20060;-70
2023/09/16 08:51:31;;;;;;;0.32;0.32;;;18.30;82.60;;;;;;5061233;28;20052;-70
2023/09/16 08:54:00;;;;;;;0.00;0.00;;;18.30;82.60;;;;;;5066050;28;20469;-70
2023/09/16 08:56:27;;;;;;;0.00;0.00;;;18.40;82.60;;;;;;5069034;28;20052;-70
2023/09/16 08:58:54;;;;;;;0.00;0.00;;;18.40;82.60;;;;;;5065060;28;20088;-70
2023/09/16 09:01:20;;;;;;;0.00;0.00;;;18.50;82.40;;;;;;5073596;28;20097;-70
2023/09/16 09:03:46;;;;;;;0.03;0.03;;;18.50;82.30;;;;;;5070322;28;20056;-69
2023/09/16 09:06:13;;;;;;;0.00;0.00;;;18.50;81.90;;;;;;5058189;28;20044;-69
2023/09/16 09:08:39;;;;;;;0.00;0.00;;;18.60;81.60;;;;;;5060726;28;20053;-70
2023/09/16 09:11:06;;;;;;;0.05;0.05;;;18.70;81.60;;;;;;5055878;28;20051;-70
2023/09/16 09:13:32;;;;;;;0.15;0.15;;;18.80;81.20;;;;;;5054777;28;20103;-70
2023/09/16 09:16:00;;;;;;;0.00;0.00;;;18.80;80.70;;;;;;5055788;28;20110;-70
2023/09/16 09:18:28;;;;;;;0.00;0.00;;;18.90;80.30;;;;;;5055365;28;20414;-70
2023/09/16 09:20:54;;;;;;;0.00;0.00;;;18.90;80.00;;;;;;5057815;28;20048;-70
2023/09/16 09:23:20;;;;;;;0.00;0.00;;;19.00;80.10;;;;;;5061313;28;20060;-69
2023/09/16 09:25:45;;;;;;;1.23;0.40;;;19.10;80.10;;;;;;5058556;28;20048;-70
2023/09/16 09:28:13;;;;;;;0.00;0.00;;;19.10;79.60;;;;;;5055524;28;20136;-70
2023/09/16 09:30:41;;;;;;;0.00;0.00;;;19.20;79.60;;;;;;5053796;28;20048;-70
2023/09/16 09:33:13;;;;;;;0.00;0.00;;;19.30;79.60;;;;;;5061039;28;20060;-70
2023/09/16 09:35:39;;;;;;;0.00;0.00;;;19.40;79.50;;;;;;5066133;28;20048;-69
2023/09/16 09:38:05;;;;;;;0.10;0.10;;;19.40;78.50;;;;;;5058534;28;20060;-70
2023/09/16 09:40:30;;;;;;;0.10;0.10;;;19.50;77.60;;;;;;5053668;28;20119;-70
2023/09/16 09:42:56;;;;;;;0.00;0.00;;;19.60;77.30;;;;;;5060973;28;20068;-70
2023/09/16 09:45:25;;;;;;;0.00;0.00;;;19.60;77.30;;;;;;5055331;28;20044;-70
2023/09/16 09:47:52;;;;;;;0.00;0.00;;;19.80;76.90;;;;;;5054789;28;20119;-70
2023/09/16 09:50:19;;;;;;;0.00;0.00;;;19.80;76.60;;;;;;5055146;28;20048;-70
2023/09/16 09:52:53;;;;;;;0.00;0.00;;;19.90;76.10;;;;;;5054324;28;20072;-70
2023/09/16 09:55:21;;;;;;;0.00;0.00;;;20.00;76.30;;;;;;5049478;28;20118;-69
2023/09/16 09:57:49;;;;;;;0.00;0.00;;;20.00;75.90;;;;;;5058470;28;20418;-70
2023/09/16 10:00:16;;;;;;;0.00;0.00;;;20.10;74.90;;;;;;5053095;28;20049;-70
2023/09/16 10:02:43;;;;;;;0.00;0.00;;;20.10;73.90;;;;;;5055954;28;20135;-69
2023/09/16 10:05:20;;;;;;;0.00;0.00;;;20.20;71.90;;;;;;5060665;28;20490;-70
2023/09/16 10:07:46;;;;;;;0.00;0.00;;;20.30;72.70;;;;;;5055288;28;20429;-70
2023/09/16 10:10:23;;;;;;;0.00;0.00;;;20.30;70.70;;;;;;5055009;28;20056;-70
2023/09/16 10:12:54;;;;;;;0.00;0.00;;;20.50;71.10;;;;;;5052862;28;20075;-69
2023/09/16 10:15:27;;;;;;;0.00;0.00;;;20.50;70.70;;;;;;5048568;28;20653;-69
2023/09/16 10:17:53;;;;;;;0.00;0.00;;;20.60;68.70;;;;;;5062121;28;20056;-69
2023/09/16 10:20:19;;;;;;;0.00;0.00;;;20.60;69.30;;;;;;5054465;28;20045;-69
2023/09/16 10:22:45;;;;;;;0.00;0.00;;;20.70;70.30;;;;;;5055556;28;20144;-69
2023/09/16 10:25:12;;;;;;;0.00;0.00;;;20.70;70.10;;;;;;5057570;28;20048;-69
2023/09/16 10:28:00;;;;;;;0.00;0.00;;;20.80;68.90;;;;;;5057211;28;20133;-69
2023/09/16 10:30:27;;;;;;;0.00;0.00;;;20.80;69.80;;;;;;5062890;28;20049;-69
2023/09/16 10:32:53;;;;;;;0.00;0.00;;;20.90;68.90;;;;;;5052921;28;20056;-69
2023/09/16 10:35:19;;;;;;;0.00;0.00;;;20.90;69.20;;;;;;5064075;28;20045;-70
2023/09/16 10:37:48;;;;;;;0.10;0.10;;;20.90;68.60;;;;;;5058264;28;20532;-69
2023/09/16 10:40:16;;;;;;;0.30;0.30;;;21.00;69.30;;;;;;5052759;28;20056;-69
2023/09/16 10:42:45;;;;;;;0.00;0.00;;;21.00;68.10;;;;;;5052310;28;20512;-69
2023/09/16 10:45:13;;;;;;;0.00;0.00;;;21.10;68.30;;;;;;5072780;28;20075;-69
2023/09/16 10:47:40;;;;;;;0.00;0.00;;;21.10;67.10;;;;;;5051903;28;20119;-68
2023/09/16 10:50:05;;;;;;;0.00;0.00;;;21.20;66.70;;;;;;5054199;28;20449;-68
2023/09/16 10:52:55;;;;;;;0.00;0.00;;;21.30;66.90;;;;;;5070223;28;20052;-68
2023/09/16 10:55:26;;;;;;;0.00;0.00;;;21.30;67.40;;;;;;5077835;28;20052;-68
2023/09/16 10:58:03;;;;;;;0.00;0.00;;;21.30;66.40;;;;;;5087214;28;20410;-67
2023/09/16 11:00:38;;;;;;;0.00;0.00;;;21.50;67.80;;;;;;5103289;28;20055;-68
2023/09/16 11:03:05;;;;;;;0.00;0.00;;;21.50;66.30;;;;;;5084869;28;20105;-67
2023/09/16 11:05:32;;;;;;;0.00;0.00;;;21.60;66.50;;;;;;5070615;28;20044;-67
2023/09/16 11:07:58;;;;;;;0.00;0.00;;;21.60;66.10;;;;;;5087857;28;20041;-67
2023/09/16 11:10:23;;;;;;;0.00;0.00;;;21.70;66.60;;;;;;5087652;28;20052;-67
2023/09/16 11:12:50;;;;;;;0.00;0.00;;;21.70;66.90;;;;;;5052821;28;20417;-67
2023/09/16 11:15:17;;;;;;;0.00;0.00;;;21.80;66.60;;;;;;5069288;28;20052;-68
2023/09/16 11:17:43;;;;;;;0.00;0.00;;;21.90;65.20;;;;;;5069557;28;20044;-68
2023/09/16 11:20:24;;;;;;;1.02;0.52;;;21.90;64.30;;;;;;5068524;28;20127;-68
2023/09/16 11:22:50;;;;;;;0.00;0.00;;;22.00;64.30;;;;;;5059797;28;20090;-68
2023/09/16 11:25:16;;;;;;;0.00;0.00;;;22.00;64.60;;;;;;5071903;28;20529;-69
2023/09/16 11:27:43;;;;;;;0.00;0.00;;;22.10;65.70;;;;;;5070472;28;20049;-68
2023/09/16 11:30:14;;;;;;;0.00;0.00;;;22.10;66.40;;;;;;5087473;28;20083;-68
2023/09/16 11:33:08;;;;;;;0.00;0.00;;;22.10;65.50;;;;;;5080915;28;20053;-69
2023/09/16 11:35:36;;;;;;;0.00;0.00;;;22.10;65.10;;;;;;5062515;28;20067;-67
2023/09/16 11:38:02;;;;;;;0.00;0.00;;;22.20;65.40;;;;;;5054513;28;20045;-68
2023/09/16 11:40:32;;;;;;;0.00;0.00;;;22.20;64.30;;;;;;5053855;28;20059;-67
2023/09/16 11:42:59;;;;;;;0.00;0.00;;;22.30;65.10;;;;;;5056701;28;20131;-67
2023/09/16 11:45:28;;;;;;;0.17;0.17;;;22.30;64.80;;;;;;5055018;28;20065;-68
2023/09/16 11:47:53;;;;;;;0.00;0.00;;;22.30;63.50;;;;;;5069065;28;20060;-69
2023/09/16 11:50:21;;;;;;;0.00;0.00;;;22.40;64.70;;;;;;5051519;28;20052;-68
2023/09/16 11:52:47;;;;;;;0.00;0.00;;;22.50;65.00;;;;;;5055220;28;20195;-68
2023/09/16 11:55:13;;;;;;;0.00;0.00;;;22.60;64.00;;;;;;5053636;28;20193;-69
2023/09/16 11:57:39;;;;;;;0.00;0.00;;;22.60;63.20;;;;;;5054129;28;20445;-69
2023/09/16 12:00:07;;;;;;;0.00;0.00;;;22.80;64.80;;;;;;5044540;28;20061;-68
2023/09/16 12:02:33;;;;;;;0.00;0.00;;;22.90;65.10;;;;;;5057536;28;20147;-69
2023/09/16 12:05:02;;;;;;;0.00;0.00;;;22.90;64.70;;;;;;5053400;28;20509;-68
2023/09/16 12:07:29;;;;;;;0.00;0.00;;;23.00;65.00;;;;;;5059510;28;20075;-69
2023/09/16 12:09:58;;;;;;;0.00;0.00;;;23.00;63.40;;;;;;5063611;28;20549;-69
2023/09/16 12:12:25;;;;;;;0.00;0.00;;;23.00;62.90;;;;;;5061789;28;20048;-69
2023/09/16 12:14:51;;;;;;;0.00;0.00;;;23.10;63.90;;;;;;5053662;28;20065;-69
2023/09/16 12:17:18;;;;;;;0.40;0.40;;;23.20;64.30;;;;;;5059936;28;20071;-69
2023/09/16 12:19:51;;;;;;;0.00;0.00;;;23.30;63.00;;;;;;5046328;28;20068;-69
2023/09/16 12:22:17;;;;;;;0.00;0.00;;;23.30;62.00;;;;;;5082986;28;20110;-68
2023/09/16 12:24:44;;;;;;;0.00;0.00;;;23.50;62.30;;;;;;5069916;28;20095;-68
2023/09/16 12:27:11;;;;;;;0.00;0.00;;;23.60;62.60;;;;;;5063688;28;20048;-69
2023/09/16 12:29:37;;;;;;;0.00;0.00;;;23.80;62.10;;;;;;5055990;28;20456;-69
2023/09/16 12:32:17;;;;;;;0.05;0.05;;;23.90;61.60;;;;;;5062272;28;20087;-69
2023/09/16 12:34:44;;;;;;;0.00;0.00;;;24.00;62.20;;;;;;5066474;28;20048;-69
2023/09/16 12:37:09;;;;;;;0.00;0.00;;;24.00;60.90;;;;;;5061743;28;20514;-69
2023/09/16 12:39:35;;;;;;;0.00;0.00;;;24.00;60.50;;;;;;5054190;28;20458;-69
2023/09/16 12:42:05;;;;;;;0.00;0.00;;;24.00;59.30;;;;;;5058522;28;20136;-67
2023/09/16 12:44:34;;;;;;;0.00;0.00;;;24.00;61.40;;;;;;5054376;28;20486;-67
2023/09/16 12:47:00;;;;;;;0.00;0.00;;;24.10;61.90;;;;;;5068010;28;20059;-68